Time;durP1;ratioP1;P1;durP2;ratioP2;P2;SDS_P1;SDS_P2;PMS_P1;PMS_P2;Temp;Humidity;BMP_temperature;BMP_pressure;BME280_temperature;BME280_humidity;BME280_pressure;Samples;Min_cycle;Max_cycle;Signal;HPM_P1;HPM_P2
2021/12/08 00:01:00;;;;;;;4.40;1.83;;;;;;;5.28;97.95;99127.06;5029751;28;20080;-77
2021/12/08 00:03:30;;;;;;;12.50;2.42;;;;;;;5.27;97.91;99125.47;5039967;28;20060;-75
2021/12/08 00:05:58;;;;;;;8.00;2.60;;;;;;;5.31;98.13;99125.47;5043034;28;20582;-77
2021/12/08 00:08:28;;;;;;;1.73;1.17;;;;;;;5.29;98.29;99123.13;5043884;28;20088;-76
2021/12/08 00:13:30;;;;;;;9.95;2.55;;;;;;;5.32;97.11;99114.09;5032640;28;20442;-77
2021/12/08 00:16:00;;;;;;;7.88;2.30;;;;;;;5.36;97.40;99112.09;5037265;28;20068;-77
2021/12/08 00:18:29;;;;;;;3.53;1.80;;;;;;;5.36;96.63;99112.09;5037332;28;20516;-77
2021/12/08 00:20:59;;;;;;;9.80;2.47;;;;;;;5.35;95.84;99096.84;5033786;28;20084;-76
2021/12/08 00:23:27;;;;;;;7.78;2.10;;;;;;;5.41;95.19;99095.22;5037638;28;20081;-77
2021/12/08 00:25:54;;;;;;;10.88;2.13;;;;;;;5.50;94.83;99103.00;5036840;28;20053;-76
2021/12/08 00:28:22;;;;;;;8.02;2.47;;;;;;;5.52;94.32;99106.13;5038360;28;20136;-78
2021/12/08 00:30:51;;;;;;;2.45;1.55;;;;;;;5.60;94.32;99109.63;5036318;28;20049;-75
2021/12/08 00:33:19;;;;;;;8.70;2.10;;;;;;;5.61;94.47;99106.47;5037981;28;20049;-76
2021/12/08 00:35:48;;;;;;;6.32;2.42;;;;;;;5.63;94.29;99108.81;5037410;28;20057;-77
2021/12/08 00:38:17;;;;;;;5.93;1.75;;;;;;;5.64;94.03;99096.66;5041312;28;20049;-75
2021/12/08 00:40:45;;;;;;;8.93;2.55;;;;;;;5.74;93.53;99090.31;5036688;28;20129;-76
2021/12/08 00:43:12;;;;;;;5.30;2.63;;;;;;;5.78;93.11;99088.31;5030441;28;20592;-76
2021/12/08 00:45:39;;;;;;;6.40;2.20;;;;;;;5.81;93.37;99073.78;5038496;28;20550;-76
2021/12/08 00:48:06;;;;;;;2.30;1.13;;;;;;;5.83;93.47;99076.91;5030567;28;20057;-77
2021/12/08 00:50:34;;;;;;;4.70;2.70;;;;;;;5.86;93.15;99081.59;5039159;28;20044;-76
2021/12/08 00:53:02;;;;;;;1.38;0.85;;;;;;;5.89;92.98;99072.56;5030814;28;20144;-75
2021/12/08 00:55:28;;;;;;;5.30;1.42;;;;;;;5.99;92.11;99071.69;5028178;28;20096;-76
2021/12/08 00:57:55;;;;;;;6.80;1.65;;;;;;;6.11;91.76;99074.69;5035545;28;20152;-76
2021/12/08 01:00:26;;;;;;;2.92;1.45;;;;;;;6.23;91.62;99081.66;5026365;28;20498;-78
2021/12/08 01:02:52;;;;;;;5.00;1.52;;;;;;;6.24;91.87;99066.75;5026015;28;21310;-76
2021/12/08 01:05:23;;;;;;;2.92;1.73;;;;;;;6.25;91.84;99082.84;5025164;28;20128;-76
2021/12/08 01:07:50;;;;;;;4.72;1.75;;;;;;;6.35;91.57;99062.69;5033434;28;20085;-76
2021/12/08 01:10:24;;;;;;;3.55;1.52;;;;;;;6.27;92.41;99065.91;5025702;28;20108;-76
2021/12/08 01:13:04;;;;;;;4.85;1.70;;;;;;;6.30;92.22;99065.09;5021328;28;20076;-77
2021/12/08 01:15:30;;;;;;;2.05;1.40;;;;;;;6.34;92.04;99071.38;5035562;28;20052;-77
2021/12/08 01:17:57;;;;;;;4.57;1.67;;;;;;;6.35;92.64;99065.44;5026237;28;20490;-78
2021/12/08 01:20:24;;;;;;;3.05;1.10;;;;;;;6.37;93.09;99070.53;5025095;28;20046;-76
2021/12/08 01:22:51;;;;;;;2.70;1.45;;;;;;;6.41;93.29;99072.03;5024509;28;20053;-75
2021/12/08 01:25:18;;;;;;;1.10;0.95;;;;;;;6.26;93.44;99075.34;5024894;28;20081;-77
2021/12/08 01:27:44;;;;;;;5.05;1.75;;;;;;;6.26;93.86;99078.88;5025358;28;20068;-75
2021/12/08 01:30:12;;;;;;;3.22;1.00;;;;;;;6.34;93.66;99080.38;5027767;28;20049;-76
2021/12/08 01:32:39;;;;;;;3.75;1.00;;;;;;;6.30;94.38;99092.56;5026324;28;20291;-76
2021/12/08 01:35:08;;;;;;;6.88;2.13;;;;;;;6.34;94.04;99082.34;5027207;28;20067;-75
2021/12/08 01:37:35;;;;;;;5.55;2.30;;;;;;;6.28;94.57;99082.00;5022232;28;20133;-75
2021/12/08 01:40:06;;;;;;;3.25;1.65;;;;;;;6.14;94.92;99082.13;5029219;28;20136;-75
2021/12/08 01:42:41;;;;;;;7.13;2.15;;;;;;;6.25;94.68;99077.34;5039331;28;20077;-74
2021/12/08 01:47:55;;;;;;;8.68;2.25;;;;;;;6.16;94.94;99068.00;5025941;28;20149;-81
2021/12/08 01:50:22;;;;;;;5.90;1.70;;;;;;;6.03;95.76;99069.69;5026813;28;20136;-75
2021/12/08 01:52:49;;;;;;;4.10;1.50;;;;;;;6.05;95.86;99084.59;5026258;28;20223;-75
2021/12/08 01:55:16;;;;;;;3.80;1.85;;;;;;;5.97;95.76;99099.53;5032988;28;20625;-76
2021/12/08 01:57:43;;;;;;;3.30;1.52;;;;;;;6.05;96.02;99094.78;5046573;28;20061;-76
2021/12/08 02:00:15;;;;;;;4.05;1.42;;;;;;;6.00;95.95;99093.25;5039003;28;20049;-77
2021/12/08 02:02:43;;;;;;;4.95;1.80;;;;;;;6.04;95.96;99090.47;5032425;28;20140;-76
2021/12/08 02:05:09;;;;;;;4.38;1.75;;;;;;;6.07;95.92;99095.94;5030861;28;20149;-76
2021/12/08 02:07:36;;;;;;;1.83;1.20;;;;;;;6.08;95.97;99091.22;5044560;28;20084;-75
2021/12/08 02:10:06;;;;;;;3.15;2.00;;;;;;;6.12;95.81;99086.47;5029261;28;20128;-76
2021/12/08 02:12:37;;;;;;;4.28;1.50;;;;;;;6.13;95.97;99077.03;5029471;28;20485;-76
2021/12/08 02:15:07;;;;;;;3.22;1.55;;;;;;;6.07;96.21;99089.66;5030316;28;20136;-76
2021/12/08 02:17:35;;;;;;;7.32;2.20;;;;;;;6.21;96.44;99090.28;5030463;28;20091;-74
2021/12/08 02:20:04;;;;;;;3.13;1.38;;;;;;;6.12;96.34;99080.97;5030900;28;20059;-75
2021/12/08 02:22:31;;;;;;;2.63;1.60;;;;;;;6.20;96.41;99088.75;5029553;28;20512;-75
2021/12/08 02:24:58;;;;;;;7.22;2.42;;;;;;;6.29;96.22;99071.78;5029735;28;20079;-75
2021/12/08 02:27:24;;;;;;;3.03;1.60;;;;;;;6.29;96.14;99067.09;5031160;28;20228;-75
2021/12/08 02:30:01;;;;;;;2.53;1.00;;;;;;;6.28;95.67;99078.47;5030865;28;20604;-76
2021/12/08 02:46:40;;;;;;;2.70;1.30;;;;;;;6.33;95.76;99087.06;5029763;28;20048;-76
2021/12/08 02:49:23;;;;;;;3.05;1.35;;;;;;;6.41;96.60;99101.50;5039163;28;20488;-76
2021/12/08 02:51:51;;;;;;;9.57;2.47;;;;;;;6.46;96.58;99084.56;5011852;28;20410;-76
2021/12/08 02:54:19;;;;;;;3.05;1.15;;;;;;;6.46;96.56;99087.31;5021610;28;20127;-76
2021/12/08 02:56:46;;;;;;;5.32;1.95;;;;;;;6.52;96.66;99089.19;5031108;28;20818;-76
2021/12/08 02:59:13;;;;;;;1.20;0.93;;;;;;;6.55;96.98;99095.84;5011111;28;20131;-77
2021/12/08 03:01:41;;;;;;;2.92;1.10;;;;;;;6.57;96.78;99097.00;5046157;28;20512;-75
2021/12/08 03:04:08;;;;;;;3.30;1.73;;;;;;;6.66;96.51;99115.75;5030600;28;20053;-75
2021/12/08 03:06:35;;;;;;;0.70;0.70;;;;;;;6.66;96.67;99111.03;5038934;28;20091;-75
2021/12/08 03:09:04;;;;;;;5.78;2.70;;;;;;;6.73;96.64;99099.97;5036285;28;20136;-76
2021/12/08 03:11:31;;;;;;;2.05;1.33;;;;;;;6.69;96.69;99101.97;5045478;28;20140;-76
2021/12/08 03:14:03;;;;;;;1.75;1.00;;;;;;;6.76;96.24;99099.16;5038839;28;20140;-76
2021/12/08 03:16:30;;;;;;;1.50;1.25;;;;;;;6.84;96.03;99099.81;5051180;28;20136;-75
2021/12/08 03:18:57;;;;;;;3.63;1.33;;;;;;;6.83;96.17;99112.03;5049131;28;20045;-75
2021/12/08 03:21:29;;;;;;;6.43;1.23;;;;;;;6.87;95.88;99110.00;5026058;28;20156;-75
2021/12/08 03:24:14;;;;;;;1.58;1.02;;;;;;;6.86;96.22;99100.22;5030022;28;20080;-75
2021/12/08 03:26:50;;;;;;;6.63;1.60;;;;;;;6.94;95.82;99115.41;5029389;28;20061;-75
2021/12/08 03:29:56;;;;;;;3.33;1.20;;;;;;;6.92;96.41;99106.81;5030071;28;20220;-74
2021/12/08 03:32:15;;;;;;;3.58;1.60;;;;;;;6.95;96.23;99133.50;5029587;28;20723;-75
2021/12/08 03:34:51;;;;;;;4.80;1.20;;;;;;;6.95;96.11;99139.00;5029292;28;20064;-75
2021/12/08 03:37:26;;;;;;;2.38;1.08;;;;;;;7.03;95.76;99129.47;5031660;28;20049;-75
2021/12/08 03:39:53;;;;;;;1.20;0.93;;;;;;;7.08;96.05;99124.28;5029895;28;20140;-75
2021/12/08 03:42:23;;;;;;;2.75;1.52;;;;;;;7.12;95.79;99124.25;5029729;28;20073;-74
2021/12/08 03:44:51;;;;;;;3.58;1.08;;;;;;;7.12;95.73;99129.75;5043462;28;20072;-76
2021/12/08 03:47:25;;;;;;;1.33;0.77;;;;;;;7.16;95.75;99135.97;5039603;28;20132;-75
2021/12/08 03:49:53;;;;;;;5.00;1.88;;;;;;;7.14;96.08;99135.59;5030110;28;20076;-74
2021/12/08 03:52:20;;;;;;;4.38;1.17;;;;;;;7.15;95.70;99143.44;5028937;28;20133;-74
2021/12/08 03:54:46;;;;;;;4.40;1.77;;;;;;;7.19;95.55;99133.16;5045783;28;20501;-77
2021/12/08 03:57:13;;;;;;;1.67;0.90;;;;;;;7.18;95.80;99139.09;5032456;28;20506;-76
2021/12/08 03:59:39;;;;;;;7.70;1.58;;;;;;;7.19;96.12;99137.91;5030328;28;20809;-75
2021/12/08 04:02:06;;;;;;;0.90;0.77;;;;;;;7.17;95.94;99145.78;5032938;28;20053;-75
2021/12/08 04:04:42;;;;;;;2.30;0.77;;;;;;;7.19;96.08;99146.16;5048250;28;20498;-76
2021/12/08 04:07:11;;;;;;;1.85;0.98;;;;;;;7.18;96.05;99145.38;5029636;28;20139;-75
2021/12/08 04:09:42;;;;;;;1.08;0.50;;;;;;;7.21;96.15;99143.75;5029808;28;20089;-77
2021/12/08 04:12:13;;;;;;;1.20;0.98;;;;;;;7.17;96.33;99143.81;5029747;28;20049;-76
2021/12/08 04:14:47;;;;;;;3.97;1.70;;;;;;;7.27;96.35;99145.66;5037864;28;20084;-74
2021/12/08 04:17:18;;;;;;;3.58;1.55;;;;;;;7.23;96.25;99149.66;5044982;28;21859;-75
2021/12/08 04:19:47;;;;;;;1.40;0.57;;;;;;;7.15;96.95;99148.16;5043637;28;20045;-74
2021/12/08 04:22:32;;;;;;;4.57;1.67;;;;;;;7.16;96.92;99142.25;5027712;28;20088;-76
2021/12/08 04:25:00;;;;;;;5.43;1.23;;;;;;;7.08;97.18;99132.53;5029536;28;20513;-75
2021/12/08 04:27:32;;;;;;;3.38;1.15;;;;;;;7.16;97.08;99145.00;5015757;28;20144;-75
2021/12/08 04:30:00;;;;;;;2.63;1.67;;;;;;;7.14;97.17;99157.59;5042956;28;20087;-75
2021/12/08 04:32:29;;;;;;;1.20;0.90;;;;;;;7.09;97.36;99142.34;5028341;28;20045;-75
2021/12/08 04:35:00;;;;;;;9.45;2.40;;;;;;;7.15;97.58;99131.66;5028650;28;20052;-75
2021/12/08 04:37:32;;;;;;;2.85;0.85;;;;;;;7.04;98.15;99137.31;5030385;28;20055;-76
2021/12/08 04:40:37;;;;;;;7.63;1.75;;;;;;;7.05;98.12;99146.31;5032515;28;20159;-76
2021/12/08 04:43:17;;;;;;;3.00;1.42;;;;;;;6.99;98.53;99146.00;5028449;28;20050;-75
2021/12/08 04:46:19;;;;;;;5.53;1.40;;;;;;;7.05;98.33;99136.09;5029445;28;20111;-75
2021/12/08 05:05:47;;;;;;;3.90;1.60;;;;;;;7.01;99.15;99165.63;5028064;28;20548;-75
2021/12/08 05:09:59;;;;;;;1.77;1.15;;;;;;;6.96;99.82;99174.31;5028601;28;20259;-75
2021/12/08 05:12:31;;;;;;;0.50;0.50;;;;;;;6.95;99.64;99175.50;5041463;28;20514;-76
2021/12/08 05:15:15;;;;;;;3.22;1.70;;;;;;;7.03;99.68;99188.00;5049048;28;20142;-76
2021/12/08 05:17:46;;;;;;;2.72;1.10;;;;;;;7.00;99.92;99182.53;5036461;28;20054;-76
2021/12/08 05:20:29;;;;;;;2.88;1.33;;;;;;;7.05;99.88;99182.06;5028321;28;20049;-76
2021/12/08 05:23:02;;;;;;;6.72;1.40;;;;;;;6.96;99.99;99179.81;5027841;28;20132;-76
2021/12/08 05:25:33;;;;;;;2.05;0.70;;;;;;;6.99;100.00;99189.22;5032637;28;20067;-75
2021/12/08 05:28:04;;;;;;;1.15;0.70;;;;;;;6.98;100.00;99193.94;5031476;28;20065;-76
2021/12/08 05:30:46;;;;;;;2.75;1.00;;;;;;;7.00;100.00;99201.78;5035847;28;20053;-76
2021/12/08 05:33:13;;;;;;;4.45;1.80;;;;;;;7.08;100.00;99209.53;5030322;28;20072;-75
2021/12/08 05:35:41;;;;;;;4.65;1.70;;;;;;;7.09;99.93;99199.31;5051954;28;20143;-74
2021/12/08 05:38:08;;;;;;;5.53;1.65;;;;;;;7.08;99.95;99204.03;5038026;28;20049;-76
2021/12/08 05:40:48;;;;;;;4.55;1.85;;;;;;;7.04;100.00;99202.50;5031534;28;20488;-75
2021/12/08 05:43:15;;;;;;;3.53;1.55;;;;;;;7.03;99.87;99207.25;5029952;28;20053;-75
2021/12/08 05:45:44;;;;;;;4.35;1.65;;;;;;;7.10;99.63;99215.41;5030947;28;20064;-75
2021/12/08 05:48:12;;;;;;;3.70;1.90;;;;;;;7.08;99.68;99226.03;5026837;28;20053;-76
2021/12/08 05:51:03;;;;;;;3.17;1.92;;;;;;;7.11;99.90;99213.44;5042563;28;20115;-76
2021/12/08 05:53:31;;;;;;;2.35;1.50;;;;;;;7.08;99.83;99225.25;5036731;28;20164;-75
2021/12/08 05:55:59;;;;;;;11.60;2.47;;;;;;;7.12;99.29;99224.03;5031678;28;20060;-75
2021/12/08 05:58:27;;;;;;;3.90;1.38;;;;;;;7.10;99.42;99209.13;5039194;28;20164;-76
2021/12/08 06:00:59;;;;;;;3.88;1.58;;;;;;;7.16;99.37;99222.00;5032660;28;20148;-77
2021/12/08 06:03:26;;;;;;;5.85;2.03;;;;;;;7.15;99.23;99216.91;5039167;28;20057;-76
2021/12/08 06:05:58;;;;;;;4.93;1.75;;;;;;;7.13;99.27;99219.31;5045781;28;20148;-75
2021/12/08 06:08:28;;;;;;;5.78;1.85;;;;;;;7.08;99.14;99217.78;5027939;28;20053;-75
2021/12/08 06:10:58;;;;;;;6.63;2.50;;;;;;;7.10;99.75;99211.88;5029778;28;20103;-73
2021/12/08 06:13:25;;;;;;;7.38;2.40;;;;;;;7.09;99.45;99213.06;5031744;28;20555;-75
2021/12/08 06:15:53;;;;;;;5.13;1.67;;;;;;;7.05;99.91;99226.06;5031418;28;20056;-76
2021/12/08 06:18:23;;;;;;;4.90;1.70;;;;;;;7.02;99.89;99233.16;5031552;28;20076;-76
2021/12/08 06:20:53;;;;;;;5.75;1.83;;;;;;;7.06;100.00;99235.88;5032224;28;20512;-76
2021/12/08 06:23:20;;;;;;;10.95;2.38;;;;;;;7.01;100.00;99231.63;5029889;28;20053;-77
2021/12/08 06:25:47;;;;;;;2.88;1.13;;;;;;;7.00;100.00;99232.00;5031093;28;20183;-76
2021/12/08 06:28:14;;;;;;;6.82;2.35;;;;;;;7.05;100.00;99234.31;5028698;28;20048;-77
2021/12/08 06:30:45;;;;;;;5.70;1.77;;;;;;;7.09;100.00;99248.81;5028591;28;20050;-75
2021/12/08 06:33:14;;;;;;;13.20;2.75;;;;;;;7.10;100.00;99242.13;5044737;28;20049;-74
2021/12/08 06:35:46;;;;;;;6.40;2.17;;;;;;;7.08;100.00;99231.53;5042245;28;20144;-76
2021/12/08 06:38:14;;;;;;;9.02;2.22;;;;;;;7.04;100.00;99241.78;5036281;28;20078;-75
2021/12/08 06:41:01;;;;;;;3.22;1.20;;;;;;;7.03;100.00;99239.44;5030526;28;20140;-75
2021/12/08 06:43:31;;;;;;;12.63;2.67;;;;;;;7.04;100.00;99243.75;5040814;28;20124;-75
2021/12/08 06:46:00;;;;;;;8.90;2.80;;;;;;;6.99;100.00;99244.97;5028407;28;20164;-74
2021/12/08 06:48:37;;;;;;;9.98;2.25;;;;;;;6.98;100.00;99237.91;5029487;28;20073;-74
2021/12/08 06:51:13;;;;;;;6.10;2.40;;;;;;;6.92;100.00;99255.28;5024469;28;20092;-76
2021/12/08 06:53:43;;;;;;;9.98;2.42;;;;;;;6.91;100.00;99246.25;5030792;28;20057;-76
2021/12/08 06:56:26;;;;;;;8.68;2.75;;;;;;;6.80;100.00;99258.53;5033675;28;20140;-75
2021/12/08 06:58:57;;;;;;;8.25;2.40;;;;;;;6.84;100.00;99264.75;5041902;28;20133;-75
2021/12/08 07:04:54;;;;;;;5.13;2.20;;;;;;;6.74;100.00;99263.69;5025801;28;20508;-74
2021/12/08 07:07:26;;;;;;;7.75;2.67;;;;;;;6.73;100.00;99256.63;5030778;28;20095;-76
2021/12/08 07:09:58;;;;;;;10.68;2.65;;;;;;;6.72;100.00;99251.53;5032570;28;20045;-77
2021/12/08 07:12:33;;;;;;;9.43;2.60;;;;;;;6.67;100.00;99255.50;5036259;28;20410;-74
2021/12/08 07:15:11;;;;;;;13.65;2.85;;;;;;;6.65;100.00;99265.34;5035167;28;20079;-75
2021/12/08 07:17:40;;;;;;;6.85;1.88;;;;;;;6.59;100.00;99269.72;5031187;28;20457;-74
2021/12/08 07:22:45;;;;;;;8.57;2.43;;;;;;;6.63;100.00;99273.19;5027156;28;20045;-73
2021/12/08 07:25:13;;;;;;;13.68;2.72;;;;;;;6.62;100.00;99275.16;5040853;28;20541;-76
2021/12/08 07:27:40;;;;;;;9.25;3.42;;;;;;;6.64;100.00;99288.50;5034508;28;20088;-74
2021/12/08 07:30:30;;;;;;;11.75;2.95;;;;;;;6.59;100.00;99286.19;5043157;28;20086;-74
2021/12/08 07:32:59;;;;;;;8.93;2.35;;;;;;;6.67;100.00;99284.94;5030344;28;20100;-74
2021/12/08 07:35:35;;;;;;;10.20;2.88;;;;;;;6.70;100.00;99284.13;5038499;28;20092;-73
2021/12/08 07:38:05;;;;;;;15.25;2.58;;;;;;;6.71;100.00;99305.72;5035246;28;20456;-78
2021/12/08 07:40:51;;;;;;;14.32;3.63;;;;;;;6.73;100.00;99306.09;5050189;28;20048;-75
2021/12/08 07:43:21;;;;;;;8.48;2.97;;;;;;;6.76;100.00;99310.00;5031210;28;20512;-75
2021/12/08 07:45:56;;;;;;;13.70;3.10;;;;;;;6.77;100.00;99315.09;5030265;28;20464;-75
2021/12/08 07:48:29;;;;;;;2.05;0.95;;;;;;;6.76;100.00;99319.03;5028268;28;20076;-76
2021/12/08 07:51:03;;;;;;;8.63;2.63;;;;;;;6.83;100.00;99318.19;5032519;28;20056;-76
2021/12/08 07:53:31;;;;;;;7.70;2.85;;;;;;;6.81;100.00;99321.34;5042543;28;20055;-75
2021/12/08 07:56:03;;;;;;;0.70;0.70;;;;;;;6.80;100.00;99328.03;5030740;28;20140;-74
2021/12/08 07:58:35;;;;;;;10.63;2.85;;;;;;;6.87;100.00;99314.22;5030291;28;20053;-74
2021/12/08 08:01:09;;;;;;;3.67;1.90;;;;;;;6.89;100.00;99313.84;5032777;28;20081;-74
2021/12/08 08:03:36;;;;;;;5.93;2.35;;;;;;;6.92;100.00;99319.28;5030118;28;20046;-74
2021/12/08 08:06:09;;;;;;;8.60;2.80;;;;;;;6.93;100.00;99326.38;5034855;28;20159;-69
2021/12/08 08:08:36;;;;;;;10.88;3.55;;;;;;;6.96;100.00;99330.25;5039562;28;20131;-75
2021/12/08 08:11:13;;;;;;;11.23;2.67;;;;;;;6.88;100.00;99331.50;5032776;28;20128;-75
2021/12/08 08:13:40;;;;;;;9.73;2.42;;;;;;;6.90;100.00;99340.91;5028450;28;20091;-79
2021/12/08 08:16:12;;;;;;;11.32;3.45;;;;;;;6.89;100.00;99336.59;5029030;28;20828;-76
2021/12/08 08:18:44;;;;;;;2.42;1.20;;;;;;;6.91;100.00;99358.19;5031156;28;20103;-76
2021/12/08 08:21:19;;;;;;;10.77;2.97;;;;;;;6.93;100.00;99359.38;5034686;28;20072;-77
2021/12/08 08:23:46;;;;;;;9.95;3.35;;;;;;;6.89;100.00;99355.06;5029614;28;20057;-76
2021/12/08 08:26:14;;;;;;;5.80;1.75;;;;;;;6.87;100.00;99360.19;5036615;28;20523;-76
2021/12/08 08:28:44;;;;;;;15.75;4.07;;;;;;;6.92;99.90;99352.28;5027571;28;20067;-77
2021/12/08 08:31:16;;;;;;;13.18;2.80;;;;;;;6.92;99.77;99340.53;5028961;28;20136;-77
2021/12/08 08:33:44;;;;;;;10.90;2.65;;;;;;;6.93;99.39;99347.56;5027185;28;20055;-75
2021/12/08 08:36:15;;;;;;;12.40;2.72;;;;;;;6.96;99.03;99346.75;5031251;28;20084;-74
2021/12/08 08:38:51;;;;;;;5.70;1.98;;;;;;;6.95;98.69;99348.72;5038575;28;20092;-75
2021/12/08 08:41:25;;;;;;;13.70;3.13;;;;;;;6.99;97.84;99343.97;5024693;28;20510;-75
2021/12/08 08:43:56;;;;;;;10.88;3.47;;;;;;;7.04;97.49;99353.75;5028358;28;20049;-74
2021/12/08 08:46:27;;;;;;;17.52;4.47;;;;;;;7.05;97.16;99352.56;5023235;28;20072;-75
2021/12/08 08:48:59;;;;;;;15.00;3.92;;;;;;;7.09;96.84;99351.34;5034778;28;20045;-75
2021/12/08 08:51:59;;;;;;;11.20;3.30;;;;;;;7.08;95.65;99357.25;5020116;28;20140;-77
2021/12/08 08:54:30;;;;;;;19.58;4.90;;;;;;;7.14;95.36;99355.63;5019577;28;20049;-77
2021/12/08 08:57:06;;;;;;;15.07;4.18;;;;;;;7.18;95.32;99372.88;5027536;28;20055;-77
2021/12/08 08:59:40;;;;;;;11.02;3.38;;;;;;;7.23;95.14;99369.72;5028140;28;20136;-76
2021/12/08 09:02:09;;;;;;;10.02;3.17;;;;;;;7.24;95.02;99361.03;5024947;28;20053;-76
2021/12/08 09:04:48;;;;;;;11.88;3.50;;;;;;;7.28;94.60;99366.50;5028724;28;20063;-77
2021/12/08 09:07:22;;;;;;;11.75;3.00;;;;;;;7.35;94.02;99355.44;5024560;28;20085;-78
2021/12/08 09:09:51;;;;;;;10.27;2.30;;;;;;;7.34;93.36;99351.13;5028022;28;20049;-76
2021/12/08 09:12:22;;;;;;;9.27;2.10;;;;;;;7.40;93.56;99347.50;5026858;28;20124;-76
2021/12/08 09:15:07;;;;;;;16.83;2.85;;;;;;;7.48;93.62;99357.28;5023922;28;20057;-77
2021/12/08 09:17:46;;;;;;;6.97;2.65;;;;;;;7.50;93.68;99362.38;5025577;28;20136;-76
2021/12/08 09:20:34;;;;;;;13.18;2.97;;;;;;;7.53;93.34;99375.31;5020395;28;20599;-76
2021/12/08 09:23:06;;;;;;;7.38;2.08;;;;;;;7.57;93.25;99365.03;5024682;28;20049;-76
2021/12/08 09:25:40;;;;;;;16.13;3.10;;;;;;;7.60;93.26;99356.72;5026190;28;20050;-76
2021/12/08 09:28:11;;;;;;;16.30;2.70;;;;;;;7.62;92.84;99368.13;5029318;28;20525;-77
2021/12/08 09:30:56;;;;;;;8.43;2.50;;;;;;;7.64;92.70;99364.97;5028720;28;20111;-76
2021/12/08 09:33:28;;;;;;;8.63;2.65;;;;;;;7.65;92.51;99380.28;5027394;28;20056;-75
2021/12/08 09:36:00;;;;;;;15.27;3.22;;;;;;;7.72;92.47;99374.69;5033372;28;20053;-75
2021/12/08 09:38:33;;;;;;;20.92;8.70;;;;;;;7.74;92.28;99383.34;5030848;28;20136;-77
2021/12/08 09:41:09;;;;;;;14.13;3.33;;;;;;;7.77;91.89;99382.53;5027601;28;20059;-76
2021/12/08 09:43:53;;;;;;;9.48;2.85;;;;;;;7.75;91.14;99407.72;5025041;28;20087;-77
2021/12/08 09:46:24;;;;;;;9.13;2.30;;;;;;;7.76;90.74;99395.50;5026441;28;20050;-76
2021/12/08 09:48:52;;;;;;;15.15;2.75;;;;;;;7.85;91.01;99392.25;5027098;28;20137;-76
2021/12/08 09:51:23;;;;;;;8.48;2.80;;;;;;;7.83;91.19;99387.16;5025481;28;20510;-77
2021/12/08 09:53:52;;;;;;;4.90;1.83;;;;;;;7.79;91.33;99383.66;5016127;28;20164;-77
2021/12/08 09:56:20;;;;;;;15.15;3.17;;;;;;;7.88;91.84;99377.66;5029182;28;20497;-76
2021/12/08 09:58:47;;;;;;;24.60;3.47;;;;;;;7.87;91.13;99376.13;5039425;28;20080;-76
2021/12/08 10:01:19;;;;;;;12.13;2.67;;;;;;;7.85;91.23;99373.78;5028428;28;20053;-76
2021/12/08 10:03:48;;;;;;;13.77;2.50;;;;;;;7.88;90.85;99377.66;5019668;28;20057;-76
2021/12/08 10:06:16;;;;;;;8.50;2.25;;;;;;;7.83;90.23;99378.09;5034090;28;20056;-78
2021/12/08 10:08:44;;;;;;;11.52;2.90;;;;;;;7.89;90.75;99384.72;5035723;28;20057;-77
2021/12/08 10:11:12;;;;;;;10.85;2.22;;;;;;;7.86;90.08;99375.31;5027505;28;20173;-77
2021/12/08 10:13:40;;;;;;;11.02;2.65;;;;;;;7.94;90.44;99381.53;5015021;28;20093;-76
2021/12/08 10:16:08;;;;;;;8.77;1.90;;;;;;;7.92;89.93;99383.91;5020658;28;20077;-76
2021/12/08 10:18:35;;;;;;;14.95;2.95;;;;;;;7.95;90.27;99377.59;5023661;28;20553;-76
2021/12/08 10:21:02;;;;;;;11.48;2.95;;;;;;;7.96;89.79;99379.13;5022328;28;20068;-75
2021/12/08 10:23:33;;;;;;;10.18;2.13;;;;;;;7.90;88.64;99395.34;5023383;28;20033;-78
2021/12/08 10:26:05;;;;;;;7.07;2.40;;;;;;;7.98;87.94;99402.34;5022233;28;20057;-78
2021/12/08 10:28:39;;;;;;;3.60;1.73;;;;;;;8.01;87.71;99395.22;5033112;28;20126;-75
2021/12/08 10:31:13;;;;;;;6.60;2.08;;;;;;;8.00;87.84;99399.16;5041738;28;20057;-76
2021/12/08 10:34:22;;;;;;;11.80;2.00;;;;;;;8.01;87.84;99398.75;5022239;28;20169;-75
2021/12/08 10:36:49;;;;;;;8.32;2.00;;;;;;;8.05;86.60;99409.72;5019262;28;20064;-75
2021/12/08 10:39:16;;;;;;;14.75;3.25;;;;;;;8.10;86.42;99406.50;5030220;28;20152;-77
2021/12/08 10:41:45;;;;;;;7.63;1.77;;;;;;;8.09;85.74;99407.72;5027137;28;20057;-78
2021/12/08 10:44:49;;;;;;;11.50;2.63;;;;;;;8.11;85.70;99410.84;5025259;28;20061;-78
2021/12/08 10:47:27;;;;;;;6.55;1.50;;;;;;;8.11;84.47;99421.88;5030635;28;20053;-77
2021/12/08 10:55:24;;;;;;;4.32;1.60;;;;;;;8.06;82.86;99430.56;5019290;28;20065;-78
2021/12/08 10:57:55;;;;;;;7.05;1.67;;;;;;;8.20;82.96;99402.84;5030048;28;20414;-76
2021/12/08 11:00:28;;;;;;;4.68;1.73;;;;;;;8.12;82.72;99400.59;5026433;28;20100;-77
2021/12/08 11:03:12;;;;;;;6.70;2.05;;;;;;;8.25;82.17;99401.66;5025070;28;20048;-80
2021/12/08 11:05:47;;;;;;;5.18;1.38;;;;;;;8.35;82.43;99396.00;5023116;28;20519;-76
2021/12/08 11:08:21;;;;;;;12.55;2.40;;;;;;;8.34;81.03;99404.69;5025574;28;20473;-75
2021/12/08 11:10:51;;;;;;;8.85;2.15;;;;;;;8.46;80.73;99399.41;5022773;28;20080;-76
2021/12/08 11:13:22;;;;;;;12.23;1.60;;;;;;;8.47;79.68;99394.66;5025034;28;20084;-76
2021/12/08 11:16:02;;;;;;;9.98;2.10;;;;;;;8.63;79.71;99394.81;5021265;28;20055;-76
2021/12/08 11:18:30;;;;;;;9.45;2.75;;;;;;;8.73;79.19;99380.88;5018689;28;20045;-76
2021/12/08 11:21:05;;;;;;;6.40;1.70;;;;;;;8.61;78.28;99381.44;5023519;28;20064;-76
2021/12/08 11:23:52;;;;;;;;;;;;;;;;;;;;;
2021/12/08 11:26:27;;;;;;;3.92;1.52;;;;;;;8.50;78.27;99388.34;5024420;28;20049;-76
2021/12/08 11:29:05;;;;;;;9.65;2.40;;;;;;;8.51;78.70;99401.69;5029270;28;20082;-76
2021/12/08 11:31:40;;;;;;;7.80;2.70;;;;;;;8.52;79.23;99394.19;5025696;28;20053;-76
2021/12/08 11:34:17;;;;;;;9.32;3.33;;;;;;;8.50;79.60;99413.91;5016637;28;20141;-75
2021/12/08 11:36:45;;;;;;;11.80;2.83;;;;;;;8.48;79.96;99412.75;5022237;28;20052;-77
2021/12/08 11:39:16;;;;;;;4.75;1.48;;;;;;;8.41;80.14;99423.88;5029931;28;20286;-76
2021/12/08 11:41:46;;;;;;;19.27;3.75;;;;;;;8.60;80.22;99426.75;5021449;28;20060;-77
2021/12/08 11:44:17;;;;;;;12.30;2.78;;;;;;;8.77;79.64;99424.97;5021047;28;20061;-76
2021/12/08 11:47:02;;;;;;;2.47;1.58;;;;;;;8.53;78.29;99429.63;5026312;28;20045;-75
2021/12/08 11:49:29;;;;;;;3.38;1.58;;;;;;;8.59;77.79;99432.69;5030170;28;20072;-75
2021/12/08 11:52:02;;;;;;;12.30;2.40;;;;;;;8.77;78.63;99441.53;5021182;28;20100;-77
2021/12/08 11:54:39;;;;;;;10.25;2.28;;;;;;;8.71;77.77;99430.16;5004504;28;20161;-75
2021/12/08 11:57:11;;;;;;;4.63;1.10;;;;;;;8.76;78.04;99432.47;5019116;28;20563;-75
2021/12/08 11:59:47;;;;;;;6.05;1.65;;;;;;;8.66;76.53;99438.91;5029999;28;20101;-75
2021/12/08 12:02:15;;;;;;;2.28;1.00;;;;;;;8.66;76.89;99435.34;5024302;28;20073;-78
2021/12/08 12:04:42;;;;;;;3.38;1.55;;;;;;;8.64;77.11;99435.00;5022549;28;20059;-77
2021/12/08 12:07:14;;;;;;;4.15;0.90;;;;;;;8.98;76.16;99425.41;5033569;28;20136;-78
2021/12/08 12:09:42;;;;;;;9.23;1.65;;;;;;;9.56;74.06;99416.59;5017588;28;20054;-76
2021/12/08 12:12:09;;;;;;;7.15;2.03;;;;;;;9.66;72.23;99423.13;5018270;28;20206;-75
2021/12/08 12:14:36;;;;;;;10.55;2.40;;;;;;;9.72;73.75;99419.44;5026197;28;20148;-77
2021/12/08 12:17:03;;;;;;;6.93;1.70;;;;;;;9.37;71.82;99428.34;5026469;28;20152;-75
2021/12/08 12:19:39;;;;;;;7.47;1.25;;;;;;;9.17;72.91;99432.22;5027697;28;20046;-75
2021/12/08 12:22:18;;;;;;;3.95;1.45;;;;;;;8.99;73.19;99420.69;5023568;28;20052;-76
2021/12/08 12:25:11;;;;;;;9.63;1.60;;;;;;;8.88;73.29;99433.88;5020148;28;20049;-74
2021/12/08 12:27:54;;;;;;;7.13;2.17;;;;;;;8.93;73.66;99428.66;5019034;28;20041;-76
2021/12/08 12:30:32;;;;;;;2.78;0.77;;;;;;;8.81;73.67;99434.72;5028533;28;20051;-75
2021/12/08 12:32:59;;;;;;;8.10;0.93;;;;;;;8.83;73.60;99435.09;5025408;28;20060;-76
2021/12/08 12:35:31;;;;;;;2.70;1.27;;;;;;;8.97;73.85;99432.13;5017420;28;20153;-76
2021/12/08 12:38:08;;;;;;;9.13;1.30;;;;;;;9.08;73.12;99432.00;5019955;28;20049;-75
2021/12/08 12:40:43;;;;;;;9.63;1.77;;;;;;;9.06;73.37;99442.66;5023472;28;20057;-77
2021/12/08 12:43:12;;;;;;;6.43;1.42;;;;;;;9.16;73.06;99447.22;5024820;28;20084;-73
2021/12/08 12:45:44;;;;;;;6.43;1.77;;;;;;;10.06;69.95;99446.88;5018391;28;20054;-76
2021/12/08 12:48:16;;;;;;;5.40;1.33;;;;;;;10.19;67.19;99445.81;5024833;28;20065;-76
2021/12/08 12:51:07;;;;;;;6.45;1.90;;;;;;;10.25;66.11;99440.56;5025188;28;20084;-78